Pagina principale
METAR-TAF:

METAR-TAF

Aeroporti :

Aeroporto di Catania-Fontanarossa

Catania, Italia

latitudine: 37-28N, longitudine: 015-03E, altezza: 11 m

Osservazione

Il bollettino è stato emesso 16 minuti fa, alle 14:50 UTC
Vento 13 kt da ovest/sud-ovest
Temperature 30°C
Umidità 38%
Pressione 1007 hPa
Visibilità 10 km o più
Poco nuvoloso ad un'altezza di 5000 ft

METAR: LICC 271450Z 25013KT 9999 FEW050 30/14 Q1007

Ora: 17:06 (15:06 UTC)

Previsione

Il bollettino è stato emesso 4 ore e 6 minuti fa, alle 11:00 UTC
Previsione valida dal 27 alle 12 UTC al 28 alle 12 UTC
Vento 15 kt da ovest
Visibilità 10 km o più
Poco nuvoloso ad un'altezza di 7000 ft
Evoluzione graduale
dal 27 alle 12 UTC al 27 alle 14 UTC
Vento 10 kt da est/nord-est
Evoluzione graduale
dal 27 alle 18 UTC al 27 alle 20 UTC
Vento 10 kt da ovest

TAF: LICC 271100Z 2712/2812 26015KT 9999 FEW070 BECMG 2712/2714 07010KT BECMG 2718/2720 26010KT

Osservazioni e previsioni meteorologiche di più di 4000 aeroporti (messaggi METAR e TAF).

Le stazioni disponibili sono rappresentate dai dischi gialli e rossi sulla carta.

Puntare il mouse per vedere il nome della stazione.

Clicca sopra per visualizzare le osservazioni e previsioni meteorologiche.

Per cambiare la mappa : fare clic sui pulsanti verdi con una croce nera per ingrandire, il pulsante verde con un trattino per diminuire, o sulla freccia verde per le mappe adiacenti.


METAR-TAF: